createdAt,value
2023-03-23T15:59:07.239Z,100172.78
2023-03-23T16:01:33.983Z,100176.38
2023-03-23T16:04:09.257Z,100196.75
2023-03-23T16:06:37.001Z,100195.84
2023-03-23T16:09:04.794Z,100187.44
2023-03-23T16:11:32.415Z,100193.47
2023-03-23T16:13:59.629Z,100192.91
2023-03-23T16:16:37.180Z,100197.22
2023-03-23T16:19:07.377Z,100200.31
2023-03-23T16:21:34.210Z,100189.72
2023-03-23T16:24:01.404Z,100193.44
2023-03-23T16:26:27.969Z,100185.06
2023-03-23T16:29:02.725Z,100185.59
2023-03-23T16:31:36.782Z,100204.75
2023-03-23T16:34:03.701Z,100185.59
2023-03-23T16:36:30.644Z,100181.03
2023-03-23T16:38:57.281Z,100187.72
2023-03-23T16:41:23.821Z,100179.84
2023-03-23T16:43:50.362Z,100176.84
2023-03-23T16:46:16.942Z,100181.75
2023-03-23T16:48:43.761Z,100186.38
2023-03-23T16:51:10.451Z,100196.28
2023-03-23T16:53:37.674Z,100172.25
2023-03-23T16:56:04.993Z,100176.78
2023-03-23T16:58:31.564Z,100166.78
2023-03-23T17:00:58.088Z,100165.06
2023-03-23T17:03:24.771Z,100161.16
2023-03-23T17:05:52.313Z,100158.88
2023-03-23T17:08:20.502Z,100150.81
2023-03-23T17:10:47.096Z,100158.28
2023-03-23T17:13:13.922Z,100150.75
2023-03-23T17:15:43.035Z,100141.06
2023-03-23T17:18:11.281Z,100140.44
2023-03-23T17:20:38.240Z,100124.44
2023-03-23T17:23:05.482Z,100130.50
2023-03-23T17:25:32.252Z,100130.13
2023-03-23T17:28:05.609Z,100133.22
2023-03-23T17:30:33.117Z,100133.50
2023-03-23T17:32:59.737Z,100133.22
2023-03-23T17:35:26.328Z,100131.44
2023-03-23T17:37:52.839Z,100128.25
2023-03-23T17:40:19.428Z,100137.69
2023-03-23T17:42:46.382Z,100123.03
2023-03-23T17:45:12.886Z,100122.09
2023-03-23T17:47:39.518Z,100123.38
2023-03-23T17:50:11.921Z,100126.38
2023-03-23T17:52:39.778Z,100121.47
2023-03-23T17:55:06.866Z,100123.28
2023-03-23T17:57:35.896Z,100123.19
2023-03-23T18:00:03.929Z,100124.38
2023-03-23T18:02:30.592Z,100125.22
2023-03-23T18:04:59.547Z,100117.16
2023-03-23T18:07:26.380Z,100115.94
2023-03-23T18:09:52.897Z,100132.06
2023-03-23T18:12:19.504Z,100140.16
2023-03-23T18:14:46.100Z,100117.28
2023-03-23T18:17:12.658Z,100127.63
2023-03-23T18:19:39.247Z,100122.66
2023-03-23T18:22:05.778Z,100111.38
2023-03-23T18:24:32.413Z,100111.28
2023-03-23T18:27:00.191Z,100106.06
2023-03-23T18:29:26.806Z,100096.41
2023-03-23T18:31:53.366Z,100096.34
2023-03-23T18:34:19.908Z,100096.88
2023-03-23T18:36:46.505Z,100105.50
2023-03-23T18:39:13.096Z,100086.72
2023-03-23T18:41:39.639Z,100106.13
2023-03-23T18:44:06.269Z,100101.69
2023-03-23T18:46:33.138Z,100093.91
2023-03-23T18:48:59.720Z,100093.28
2023-03-23T18:51:26.309Z,100087.41
2023-03-23T18:53:53.329Z,100084.13
2023-03-23T18:56:20.748Z,100075.72
2023-03-23T18:58:47.543Z,100086.91
2023-03-23T19:01:16.827Z,100087.97
2023-03-23T19:03:45.082Z,100088.25
2023-03-23T19:06:21.529Z,100076.91
2023-03-23T19:08:49.075Z,100072.44
2023-03-23T19:11:16.169Z,100067.16
2023-03-23T19:13:53.861Z,100061.75
2023-03-23T19:16:25.369Z,100075.97
2023-03-23T19:18:51.883Z,100069.06
2023-03-23T19:21:21.265Z,100070.94
2023-03-23T19:23:51.861Z,100059.41
2023-03-23T19:26:23.892Z,100050.41
2023-03-23T19:31:22.741Z,100059.09
2023-03-23T19:33:49.331Z,100049.06
2023-03-23T19:36:16.825Z,100056.34
2023-03-23T19:38:43.857Z,100057.31
2023-03-23T19:41:10.985Z,100039.72
2023-03-23T19:43:37.748Z,100045.13
2023-03-23T19:46:04.622Z,100036.22
2023-03-23T19:48:31.280Z,100024.75
2023-03-23T19:50:58.684Z,100042.47
2023-03-23T19:53:26.725Z,100027.63
2023-03-23T19:55:53.294Z,100019.88
2023-03-23T19:58:20.501Z,100034.94
2023-03-23T20:00:48.567Z,100028.88
2023-03-23T20:03:15.979Z,100035.22
2023-03-23T20:05:43.022Z,100023.66
2023-03-23T20:08:10.219Z,99998.13
2023-03-23T20:10:37.343Z,99998.22
2023-03-23T20:13:04.945Z,99988.78
2023-03-23T20:15:32.135Z,99985.41
2023-03-23T20:17:59.301Z,99995.22
2023-03-23T20:20:26.903Z,99966.97
2023-03-23T20:22:55.883Z,99981.25
2023-03-23T20:25:24.597Z,99976.78
2023-03-23T20:27:51.197Z,99967.16
2023-03-23T20:30:18.795Z,99961.31
2023-03-23T20:32:46.452Z,99956.22
2023-03-23T20:35:14.741Z,99950.03
2023-03-23T20:37:41.610Z,99947.84
2023-03-23T20:40:14.690Z,99941.00
2023-03-23T20:42:44.071Z,99952.78
2023-03-23T20:45:12.792Z,99946.81
2023-03-23T20:47:39.894Z,99944.56
2023-03-23T20:50:08.691Z,99953.88
2023-03-23T20:52:35.598Z,99939.13
2023-03-23T20:55:02.992Z,99932.03
2023-03-23T20:57:29.538Z,99934.03
2023-03-23T20:59:56.219Z,99938.16
2023-03-23T21:02:25.100Z,99945.72
2023-03-23T21:04:52.928Z,99925.06
2023-03-23T21:07:23.096Z,99925.84
2023-03-23T21:09:49.767Z,99939.91
2023-03-23T21:12:16.384Z,99925.72
2023-03-23T21:14:44.901Z,99902.72
2023-03-23T21:17:11.755Z,99898.41
2023-03-23T21:19:38.544Z,99912.50
2023-03-23T21:22:05.260Z,99919.38
2023-03-23T21:24:32.075Z,99906.44
2023-03-23T21:27:00.803Z,99934.94
2023-03-23T21:29:28.259Z,99906.00
2023-03-23T21:32:07.597Z,99908.84
2023-03-23T21:34:35.189Z,99888.31
2023-03-23T21:37:01.725Z,99874.44
2023-03-23T21:39:28.311Z,99878.13
2023-03-23T21:41:55.165Z,99921.31
2023-03-23T21:44:21.739Z,99896.97
2023-03-23T21:46:48.510Z,99876.19
2023-03-23T21:49:15.194Z,99882.63
2023-03-23T21:51:42.021Z,99843.22
2023-03-23T21:54:10.064Z,99885.78
2023-03-23T21:56:36.874Z,99852.31
2023-03-23T21:59:04.748Z,99855.72
2023-03-23T22:01:31.428Z,99862.06
2023-03-23T22:03:58.343Z,99836.63
2023-03-23T22:06:28.359Z,99864.25
2023-03-23T22:08:55.366Z,99843.75
2023-03-23T22:11:24.731Z,99829.13
2023-03-23T22:13:52.704Z,99827.56
2023-03-23T22:16:20.673Z,99829.31
2023-03-23T22:18:48.456Z,99813.47
2023-03-23T22:21:16.257Z,99815.81
2023-03-23T22:23:43.828Z,99816.66
2023-03-23T22:26:10.999Z,99800.38
2023-03-23T22:28:38.731Z,99800.69
2023-03-23T22:31:12.898Z,99805.31
2023-03-23T22:33:39.993Z,99794.19
2023-03-23T22:36:07.337Z,99790.69
2023-03-23T22:38:36.432Z,99776.63
2023-03-23T22:41:06.769Z,99765.84
2023-03-23T22:43:34.678Z,99767.91
2023-03-23T22:46:01.534Z,99768.63
2023-03-23T22:48:28.348Z,99752.47
2023-03-23T22:50:55.199Z,99776.06
2023-03-23T22:53:21.973Z,99755.66
2023-03-23T22:55:50.283Z,99758.28
2023-03-23T22:58:16.850Z,99757.34
2023-03-23T23:00:45.439Z,99745.16
2023-03-23T23:03:12.401Z,99737.44
2023-03-23T23:05:49.072Z,99725.16
2023-03-23T23:08:17.868Z,99733.75
2023-03-23T23:10:47.098Z,99736.38
2023-03-23T23:13:13.879Z,99735.31
2023-03-23T23:15:42.660Z,99720.63
2023-03-23T23:18:09.345Z,99699.44
2023-03-23T23:20:36.554Z,99709.16
2023-03-23T23:23:03.846Z,99725.69
2023-03-23T23:25:31.026Z,99718.50
2023-03-23T23:27:59.164Z,99674.38
2023-03-23T23:30:26.157Z,99706.84
2023-03-23T23:32:53.376Z,99691.72
2023-03-23T23:35:21.395Z,99683.25
2023-03-23T23:37:48.402Z,99700.91
2023-03-23T23:40:15.793Z,99686.63
2023-03-23T23:42:43.628Z,99687.38
2023-03-23T23:45:10.442Z,99650.13
2023-03-23T23:47:38.435Z,99656.16
2023-03-23T23:50:09.940Z,99670.25
2023-03-23T23:52:37.495Z,99660.38
2023-03-23T23:55:05.571Z,99667.38
2023-03-23T23:57:32.339Z,99665.28
2023-03-23T23:59:58.877Z,99630.00
